Aérodrome :
LOGIN :

S'inscrire | Disclaimer

   EN    FR    IT 

 










Légende :    VFR   VFR Marginal   IFR   IFR Intensif   IFR Très Intensif
Visi : 
Plafond : 
>= 8 km
>= 3000ft
5 à 8 km
1000 à 3000 ft
1500m à 5 km
500 à 1000 ft
800 à 1500m
200 à 500 ft
< 800m
< 200 ft
Symboles :   Orages  Brouillard  Fortes neiges  Fortes précipitations  Vent > 20 kt
SIGMETs :   Divers  Orages  Givrage  Turbulence  Onde Orograph.  Cendres Volcan.







- Altitude de l'aérodrome : 392 ft
- Code IATA : CDG
- Voir les cartes d'approche


LFPG - Paris-Aeroport Charles De Gaulle

DERNIER METAR :
  • 190900Z 23010KT 200V260 9999 FEW028 19/11 Q1018 NOSIG

METARs EXPIRÉS :
  • 190830Z 23009G19KT 180V300 9999 FEW025 18/11 Q1018 NOSIG
  • 190800Z 23009KT 9999 FEW020 17/11 Q1018 NOSIG
  • 190730Z 23009KT 190V270 9999 FEW020 17/12 Q1018 NOSIG
  • 190700Z 22009KT CAVOK 16/11 Q1018 NOSIG
  • 190630Z 23006KT 200V260 CAVOK 15/12 Q1017 NOSIG

TAF TAF LFPG
Valide du 19 à 06h jusqu'au 20 à 12h UTC


190500Z 1906/2012 24008KT CAVOK TX22/1915Z TN13/2005Z
TEMPO 1921/2007 VRB03KT
ATIS : +33 1 48 62 10 92
Pas de NOTAMs connus pour ce terrain.



MET'MAP, la Météo Aéronautique d'un coup d'oeil ! - Copyright ORBIFLY Décembre 2007 - Disclaimer

ORBIFLY MET'MAP TEAM :

Programmation & Développement : Alexandra Zaïnal
Conception & Développement : Baudouin d'Aumeries
Co-Programmation & Développement : Marc-Olivier Méhu
Soutien technique & logistique : Manuel Goepfert

Contact : metmap@orbifly.com




SOURCES & CREDITS :

   NOAA